Time;durP1;ratioP1;P1;durP2;ratioP2;P2;SDS_P1;SDS_P2;PMS_P1;PMS_P2;Temp;Humidity;BMP_temperature;BMP_pressure;BME280_temperature;BME280_humidity;BME280_pressure;Samples;Min_cycle;Max_cycle;Signal;HPM_P1;HPM_P2
2024/01/06 00:00:50;;;;;;;9.43;5.25;;;;;;;;;;4995606;28;20053;-47
2024/01/06 00:03:15;;;;;;;7.43;5.25;;;;;;;;;;4995641;28;20038;-44
2024/01/06 00:05:41;;;;;;;12.20;7.38;;;;;;;;;;4978716;28;20031;-47
2024/01/06 00:08:06;;;;;;;8.93;6.05;;;;;;;;;;4989605;28;20496;-47
2024/01/06 00:10:32;;;;;;;7.25;6.47;;;;;;;;;;4980217;28;20366;-46
2024/01/06 00:12:57;;;;;;;2.92;1.73;;;;;;;;;;4985130;28;20033;-42
2024/01/06 00:15:23;;;;;;;3.00;2.38;;;;;;;;;;4984682;28;20046;-50
2024/01/06 00:17:48;;;;;;;2.83;1.73;;;;;;;;;;4985366;28;20093;-47
2024/01/06 00:20:14;;;;;;;4.43;2.28;;;;;;;;;;4986479;28;20031;-44
2024/01/06 00:22:41;;;;;;;3.03;2.13;;;;;;;;;;5001518;28;20082;-50
2024/01/06 00:25:07;;;;;;;3.08;2.03;;;;;;;;;;4984373;28;20031;-46
2024/01/06 00:27:32;;;;;;;5.40;2.45;;;;;;;;;;4988897;28;20053;-50
2024/01/06 00:29:57;;;;;;;3.22;2.30;;;;;;;;;;5007034;28;20070;-48
2024/01/06 00:32:23;;;;;;;4.40;2.70;;;;;;;;;;4999943;28;20022;-46
2024/01/06 00:34:48;;;;;;;3.40;2.45;;;;;;;;;;4989232;28;20048;-48
2024/01/06 00:37:14;;;;;;;2.97;2.75;;;;;;;;;;4992435;28;20629;-48
2024/01/06 00:39:39;;;;;;;2.78;2.45;;;;;;;;;;4975339;28;20453;-49
2024/01/06 00:42:05;;;;;;;3.88;2.05;;;;;;;;;;4983601;28;20034;-50
2024/01/06 00:44:30;;;;;;;2.85;1.88;;;;;;;;;;5000805;28;20030;-47
2024/01/06 00:46:55;;;;;;;3.50;2.67;;;;;;;;;;4984119;28;20034;-47
2024/01/06 00:49:21;;;;;;;2.90;2.05;;;;;;;;;;4989616;28;20065;-47
2024/01/06 00:51:46;;;;;;;3.85;2.25;;;;;;;;;;4992440;28;20065;-50
2024/01/06 00:54:12;;;;;;;2.90;1.98;;;;;;;;;;4991277;28;20096;-51
2024/01/06 00:56:37;;;;;;;3.22;2.28;;;;;;;;;;4990298;28;20536;-50
2024/01/06 00:59:02;;;;;;;3.90;1.98;;;;;;;;;;4988770;28;22324;-48
2024/01/06 01:01:28;;;;;;;2.95;1.95;;;;;;;;;;4986514;28;20026;-49
2024/01/06 01:03:53;;;;;;;5.00;2.33;;;;;;;;;;4985347;28;20058;-49
2024/01/06 01:06:19;;;;;;;3.20;2.90;;;;;;;;;;4997268;28;20026;-46
2024/01/06 01:08:45;;;;;;;5.60;2.20;;;;;;;;;;4988141;28;20050;-49
2024/01/06 01:11:10;;;;;;;5.78;2.40;;;;;;;;;;4989586;28;20069;-49
2024/01/06 01:13:36;;;;;;;3.10;2.47;;;;;;;;;;4993719;28;20046;-46
2024/01/06 01:16:02;;;;;;;3.35;2.15;;;;;;;;;;4993887;28;20029;-48
2024/01/06 01:18:28;;;;;;;3.35;1.95;;;;;;;;;;4986642;28;20199;-46
2024/01/06 01:20:53;;;;;;;5.53;2.42;;;;;;;;;;4991477;28;20519;-48
2024/01/06 01:23:19;;;;;;;3.20;2.03;;;;;;;;;;4988256;28;20042;-46
2024/01/06 01:25:44;;;;;;;4.18;1.67;;;;;;;;;;4988156;28;20491;-50
2024/01/06 01:28:09;;;;;;;4.57;2.63;;;;;;;;;;4987524;28;20031;-50
2024/01/06 01:30:35;;;;;;;4.38;2.28;;;;;;;;;;4987208;28;20031;-48
2024/01/06 01:33:00;;;;;;;4.22;2.28;;;;;;;;;;4987332;28;20097;-49
2024/01/06 01:35:26;;;;;;;3.67;1.95;;;;;;;;;;4991198;28;20076;-48
2024/01/06 01:37:51;;;;;;;3.85;2.30;;;;;;;;;;4982476;28;20027;-51
2024/01/06 01:40:16;;;;;;;5.18;2.47;;;;;;;;;;4989885;28;20046;-46
2024/01/06 01:42:43;;;;;;;4.28;2.28;;;;;;;;;;4993151;28;20061;-48
2024/01/06 01:45:09;;;;;;;5.35;2.53;;;;;;;;;;4987068;28;20035;-48
2024/01/06 01:47:35;;;;;;;2.83;2.08;;;;;;;;;;4988673;28;20026;-45
2024/01/06 01:50:01;;;;;;;3.08;2.13;;;;;;;;;;4985405;28;20039;-45
2024/01/06 01:52:27;;;;;;;5.18;2.90;;;;;;;;;;4991642;28;20522;-48
2024/01/06 01:54:52;;;;;;;5.03;2.40;;;;;;;;;;4986375;28;20054;-48
2024/01/06 01:57:18;;;;;;;4.57;2.90;;;;;;;;;;4986478;28;20034;-49
2024/01/06 01:59:44;;;;;;;4.20;2.78;;;;;;;;;;4979392;28;20042;-47
2024/01/06 02:02:10;;;;;;;4.30;2.30;;;;;;;;;;4988719;28;20019;-49
2024/01/06 02:04:36;;;;;;;7.40;1.88;;;;;;;;;;4981011;28;20030;-48
2024/01/06 02:07:01;;;;;;;3.30;1.92;;;;;;;;;;4985650;28;20041;-50
2024/01/06 02:09:29;;;;;;;3.03;1.67;;;;;;;;;;4981715;28;20039;-45
2024/01/06 02:11:56;;;;;;;3.40;2.47;;;;;;;;;;4990395;28;20054;-48
2024/01/06 02:14:22;;;;;;;3.92;1.67;;;;;;;;;;4992530;28;20041;-47
2024/01/06 02:16:47;;;;;;;3.90;1.25;;;;;;;;;;4993541;28;20058;-47
2024/01/06 02:19:13;;;;;;;4.97;2.53;;;;;;;;;;4991272;28;20373;-46
2024/01/06 02:21:43;;;;;;;1.70;1.27;;;;;;;;;;4996017;28;20030;-48
2024/01/06 02:24:09;;;;;;;2.47;1.27;;;;;;;;;;4988573;28;20406;-45
2024/01/06 02:26:34;;;;;;;2.08;1.63;;;;;;;;;;4989294;28;20053;-45
2024/01/06 02:29:01;;;;;;;2.80;1.20;;;;;;;;;;4989941;28;20053;-49
2024/01/06 02:31:27;;;;;;;2.92;1.50;;;;;;;;;;4981720;28;20077;-44
2024/01/06 02:33:52;;;;;;;2.72;0.80;;;;;;;;;;4994865;28;20038;-45
2024/01/06 02:36:17;;;;;;;3.10;1.60;;;;;;;;;;5014719;28;20048;-49
2024/01/06 02:38:43;;;;;;;2.20;1.15;;;;;;;;;;4995873;28;20041;-44
2024/01/06 02:41:08;;;;;;;2.88;1.65;;;;;;;;;;4996287;28;20022;-46
2024/01/06 02:43:34;;;;;;;1.52;1.30;;;;;;;;;;4977909;28;20081;-46
2024/01/06 02:45:59;;;;;;;3.03;0.98;;;;;;;;;;4994689;28;20018;-44
2024/01/06 02:48:25;;;;;;;1.95;1.10;;;;;;;;;;4984742;28;20602;-48
2024/01/06 02:50:50;;;;;;;1.30;0.80;;;;;;;;;;5002483;28;20094;-48
2024/01/06 02:53:15;;;;;;;1.13;0.80;;;;;;;;;;4997712;28;20060;-46
2024/01/06 02:55:41;;;;;;;1.80;1.08;;;;;;;;;;4995074;28;20472;-44
2024/01/06 02:58:06;;;;;;;2.42;0.90;;;;;;;;;;4991099;28;20042;-48
2024/01/06 03:00:32;;;;;;;3.50;0.85;;;;;;;;;;4989393;28;20026;-45
2024/01/06 03:02:57;;;;;;;1.20;0.75;;;;;;;;;;4976783;28;20026;-47
2024/01/06 03:05:22;;;;;;;2.70;1.63;;;;;;;;;;4979676;28;20397;-46
2024/01/06 03:07:48;;;;;;;1.00;0.68;;;;;;;;;;4984982;28;20440;-50
2024/01/06 03:10:13;;;;;;;1.50;0.60;;;;;;;;;;4995265;28;20162;-47
2024/01/06 03:12:39;;;;;;;3.17;0.95;;;;;;;;;;4998150;28;20034;-45
2024/01/06 03:15:05;;;;;;;2.28;0.40;;;;;;;;;;4998628;28;20039;-44
2024/01/06 03:17:30;;;;;;;3.25;1.30;;;;;;;;;;5002999;28;20065;-45
2024/01/06 03:19:56;;;;;;;0.90;0.40;;;;;;;;;;4985456;28;20046;-50
2024/01/06 03:22:22;;;;;;;1.38;0.98;;;;;;;;;;4996519;28;20513;-46
2024/01/06 03:24:47;;;;;;;1.05;0.40;;;;;;;;;;4992595;28;20041;-46
2024/01/06 03:27:13;;;;;;;2.90;0.82;;;;;;;;;;4997313;28;20041;-47
2024/01/06 03:29:39;;;;;;;1.25;0.73;;;;;;;;;;4993674;28;20046;-47
2024/01/06 03:32:05;;;;;;;2.15;0.57;;;;;;;;;;4995453;28;20026;-47
2024/01/06 03:34:30;;;;;;;2.20;0.50;;;;;;;;;;4992749;28;20038;-45
2024/01/06 03:36:56;;;;;;;1.00;0.25;;;;;;;;;;4999099;28;20061;-47
2024/01/06 03:39:21;;;;;;;0.93;0.30;;;;;;;;;;4986361;28;20572;-45
2024/01/06 03:41:48;;;;;;;2.70;0.80;;;;;;;;;;4993314;28;20394;-44
2024/01/06 03:44:13;;;;;;;1.23;0.20;;;;;;;;;;4993679;28;20050;-45
2024/01/06 03:46:39;;;;;;;2.05;0.52;;;;;;;;;;4987709;28;20041;-46
2024/01/06 03:49:04;;;;;;;1.95;0.43;;;;;;;;;;4973927;28;20121;-47
2024/01/06 03:51:30;;;;;;;0.60;0.47;;;;;;;;;;4987125;28;20046;-46
2024/01/06 03:53:55;;;;;;;0.68;0.30;;;;;;;;;;4982675;28;20038;-46
2024/01/06 03:56:20;;;;;;;2.50;0.90;;;;;;;;;;4982918;28;20054;-44
2024/01/06 03:58:46;;;;;;;0.70;0.20;;;;;;;;;;4982572;28;20134;-45
2024/01/06 04:01:12;;;;;;;1.98;0.63;;;;;;;;;;4966962;28;20035;-47
2024/01/06 04:03:40;;;;;;;1.60;0.32;;;;;;;;;;4977325;28;20045;-47
2024/01/06 04:06:06;;;;;;;2.20;0.47;;;;;;;;;;4998594;28;20030;-46
2024/01/06 04:08:31;;;;;;;3.00;0.98;;;;;;;;;;4991724;28;20044;-45
2024/01/06 04:10:57;;;;;;;2.25;2.03;;;;;;;;;;4992951;28;20366;-45
2024/01/06 04:13:24;;;;;;;2.38;0.82;;;;;;;;;;4994373;28;20065;-46
2024/01/06 04:15:50;;;;;;;1.17;0.45;;;;;;;;;;4988128;28;20038;-45
2024/01/06 04:18:16;;;;;;;1.35;0.85;;;;;;;;;;4997256;28;20025;-44
2024/01/06 04:20:41;;;;;;;0.80;0.40;;;;;;;;;;4984982;28;20106;-44
2024/01/06 04:23:06;;;;;;;1.42;0.85;;;;;;;;;;4990818;28;20109;-45
2024/01/06 04:25:32;;;;;;;0.85;0.65;;;;;;;;;;4988471;28;20076;-48
2024/01/06 04:27:57;;;;;;;1.48;0.52;;;;;;;;;;4995784;28;20031;-42
2024/01/06 04:30:24;;;;;;;1.52;0.57;;;;;;;;;;4985675;28;20046;-48
2024/01/06 04:32:49;;;;;;;1.52;0.60;;;;;;;;;;4990568;28;20030;-47
2024/01/06 04:35:15;;;;;;;3.05;0.52;;;;;;;;;;4998674;28;20093;-46
2024/01/06 04:37:40;;;;;;;1.15;0.20;;;;;;;;;;4986075;28;20422;-45
2024/01/06 04:40:07;;;;;;;2.30;0.50;;;;;;;;;;4987920;28;20042;-44
2024/01/06 04:42:33;;;;;;;3.65;0.60;;;;;;;;;;4985619;28;20019;-45
2024/01/06 04:44:58;;;;;;;1.20;0.75;;;;;;;;;;4987809;28;20125;-45
2024/01/06 04:47:24;;;;;;;1.13;0.20;;;;;;;;;;4981052;28;20263;-47
2024/01/06 04:49:50;;;;;;;1.80;0.35;;;;;;;;;;4971629;28;20056;-45
2024/01/06 04:52:15;;;;;;;1.65;0.45;;;;;;;;;;4984324;28;20523;-44
2024/01/06 04:54:40;;;;;;;1.67;0.50;;;;;;;;;;4991974;28;20113;-49
2024/01/06 04:57:06;;;;;;;2.47;0.38;;;;;;;;;;4987982;28;20031;-45
2024/01/06 04:59:31;;;;;;;1.88;0.43;;;;;;;;;;4989299;28;20041;-47
2024/01/06 05:02:00;;;;;;;2.72;0.40;;;;;;;;;;4981932;28;20061;-45
2024/01/06 05:04:26;;;;;;;;;;;;;;;;;;4981254;28;20659;-47
2024/01/06 05:06:51;;;;;;;0.68;0.10;;;;;;;;;;4991162;28;19910;-44
2024/01/06 05:09:17;;;;;;;1.13;0.70;;;;;;;;;;4992304;28;20035;-49
2024/01/06 05:11:46;;;;;;;2.60;1.40;;;;;;;;;;4989923;28;20074;-45
2024/01/06 05:14:11;;;;;;;1.13;0.20;;;;;;;;;;4991652;28;20050;-45
2024/01/06 05:16:37;;;;;;;2.83;0.60;;;;;;;;;;4984679;28;20026;-46
2024/01/06 05:19:02;;;;;;;1.55;0.47;;;;;;;;;;4982595;28;20058;-46
2024/01/06 05:21:29;;;;;;;1.05;0.28;;;;;;;;;;4988953;28;20435;-48
2024/01/06 05:23:54;;;;;;;1.60;0.60;;;;;;;;;;4994002;28;20039;-45
2024/01/06 05:26:19;;;;;;;2.28;0.30;;;;;;;;;;4985519;28;20071;-46
2024/01/06 05:28:45;;;;;;;2.58;0.60;;;;;;;;;;4990261;28;20044;-47
2024/01/06 05:31:10;;;;;;;1.02;0.40;;;;;;;;;;4991540;28;20024;-45
2024/01/06 05:33:36;;;;;;;1.73;0.38;;;;;;;;;;4986969;28;20504;-46
2024/01/06 05:36:01;;;;;;;3.70;0.55;;;;;;;;;;4993377;28;20434;-48
2024/01/06 05:38:27;;;;;;;0.77;0.77;;;;;;;;;;4984353;28;20066;-45
2024/01/06 05:40:52;;;;;;;0.88;0.38;;;;;;;;;;4993302;28;20022;-46
2024/01/06 05:43:18;;;;;;;1.05;0.57;;;;;;;;;;4991755;28;20043;-47
2024/01/06 05:45:43;;;;;;;2.92;0.68;;;;;;;;;;4984502;28;20078;-48
2024/01/06 05:48:10;;;;;;;1.42;0.30;;;;;;;;;;4991872;28;20027;-45
2024/01/06 05:50:35;;;;;;;1.85;0.40;;;;;;;;;;4985640;28;20031;-46
2024/01/06 05:53:00;;;;;;;1.05;0.15;;;;;;;;;;4988609;28;20176;-45
2024/01/06 05:55:26;;;;;;;1.65;0.28;;;;;;;;;;4982785;28;20099;-49
2024/01/06 05:57:51;;;;;;;0.63;0.55;;;;;;;;;;4995421;28;20026;-44
2024/01/06 06:00:17;;;;;;;1.17;0.30;;;;;;;;;;4985795;28;20050;-45
2024/01/06 06:02:42;;;;;;;1.35;1.08;;;;;;;;;;4983214;28;20058;-46
2024/01/06 06:05:08;;;;;;;2.30;0.40;;;;;;;;;;4965804;28;20039;-48
2024/01/06 06:07:38;;;;;;;1.58;0.17;;;;;;;;;;4975892;28;20039;-44
2024/01/06 06:10:06;;;;;;;0.43;0.10;;;;;;;;;;4987574;28;20034;-47
2024/01/06 06:12:32;;;;;;;1.17;0.63;;;;;;;;;;4994569;28;20026;-46
2024/01/06 06:14:57;;;;;;;1.63;0.73;;;;;;;;;;4985023;28;20042;-46
2024/01/06 06:17:22;;;;;;;2.15;0.25;;;;;;;;;;4992578;28;20088;-44
2024/01/06 06:19:48;;;;;;;2.83;0.40;;;;;;;;;;4979301;28;20040;-49
2024/01/06 06:22:13;;;;;;;2.03;0.50;;;;;;;;;;4991223;28;20041;-48
2024/01/06 06:24:39;;;;;;;0.55;0.15;;;;;;;;;;4972959;28;20045;-44
2024/01/06 06:27:04;;;;;;;1.75;1.65;;;;;;;;;;4985580;28;20029;-48
2024/01/06 06:29:30;;;;;;;0.90;0.10;;;;;;;;;;4989210;28;20100;-47
2024/01/06 06:31:55;;;;;;;1.10;0.03;;;;;;;;;;4984553;28;20041;-48
2024/01/06 06:34:21;;;;;;;1.85;0.35;;;;;;;;;;4981792;28;20035;-47
2024/01/06 06:36:46;;;;;;;0.93;0.38;;;;;;;;;;4985692;28;20129;-46
2024/01/06 06:39:11;;;;;;;0.43;0.43;;;;;;;;;;4981296;28;20047;-44
2024/01/06 06:41:37;;;;;;;1.42;1.17;;;;;;;;;;4986386;28;20118;-45
2024/01/06 06:44:02;;;;;;;2.17;0.57;;;;;;;;;;4971956;28;20085;-46
2024/01/06 06:46:28;;;;;;;2.47;0.60;;;;;;;;;;4983879;28;20046;-45
2024/01/06 06:48:53;;;;;;;1.75;1.42;;;;;;;;;;4990168;28;20045;-49
2024/01/06 06:51:18;;;;;;;1.67;0.40;;;;;;;;;;4991314;28;20055;-47
2024/01/06 06:53:44;;;;;;;1.02;0.52;;;;;;;;;;4991460;28;20045;-47
2024/01/06 06:56:10;;;;;;;1.95;0.73;;;;;;;;;;4992876;28;20029;-49
2024/01/06 06:58:35;;;;;;;2.75;0.45;;;;;;;;;;4988589;28;20105;-50
2024/01/06 07:01:01;;;;;;;1.52;0.95;;;;;;;;;;4981990;28;20050;-48
2024/01/06 07:03:26;;;;;;;1.60;0.47;;;;;;;;;;4985553;28;20070;-50
2024/01/06 07:05:52;;;;;;;1.63;0.43;;;;;;;;;;4986170;28;20038;-47
2024/01/06 07:08:18;;;;;;;2.20;0.55;;;;;;;;;;4979822;28;20050;-47
2024/01/06 07:10:43;;;;;;;4.57;1.75;;;;;;;;;;4983045;28;20396;-47
2024/01/06 07:13:08;;;;;;;3.13;0.98;;;;;;;;;;4991132;28;20118;-46
2024/01/06 07:15:34;;;;;;;1.33;0.35;;;;;;;;;;4988762;28;20027;-47
2024/01/06 07:17:59;;;;;;;2.70;0.30;;;;;;;;;;4989241;28;20073;-50
2024/01/06 07:20:25;;;;;;;1.52;0.20;;;;;;;;;;5000466;28;20057;-49
2024/01/06 07:22:50;;;;;;;1.27;0.60;;;;;;;;;;4982571;28;20473;-47
2024/01/06 07:25:15;;;;;;;2.10;0.93;;;;;;;;;;4994792;28;20448;-48
2024/01/06 07:27:41;;;;;;;2.08;0.52;;;;;;;;;;4994960;28;20745;-47
2024/01/06 07:30:08;;;;;;;1.17;0.30;;;;;;;;;;4995372;28;20561;-47
2024/01/06 07:32:34;;;;;;;1.52;0.60;;;;;;;;;;4989184;28;20034;-46
2024/01/06 07:34:59;;;;;;;2.03;0.90;;;;;;;;;;4976023;28;20432;-47
2024/01/06 07:37:25;;;;;;;2.90;0.60;;;;;;;;;;4992749;28;20037;-45
2024/01/06 07:39:51;;;;;;;1.42;0.40;;;;;;;;;;4996206;28;20034;-45
2024/01/06 07:42:16;;;;;;;3.22;0.40;;;;;;;;;;4989598;28;20026;-47
2024/01/06 07:44:42;;;;;;;3.25;0.45;;;;;;;;;;4984290;28;20057;-48
2024/01/06 07:47:07;;;;;;;1.80;0.15;;;;;;;;;;4990099;28;20052;-48
2024/01/06 07:49:32;;;;;;;1.67;0.20;;;;;;;;;;4989079;28;20057;-46
2024/01/06 07:51:58;;;;;;;0.28;0.10;;;;;;;;;;4984019;28;20049;-50
2024/01/06 07:54:23;;;;;;;3.00;0.60;;;;;;;;;;4984266;28;20115;-52
2024/01/06 07:56:49;;;;;;;2.33;0.30;;;;;;;;;;4990127;28;20440;-47
2024/01/06 07:59:14;;;;;;;9.25;0.98;;;;;;;;;;4989557;28;20497;-48
2024/01/06 08:01:42;;;;;;;3.38;1.20;;;;;;;;;;4982841;28;20362;-49
2024/01/06 08:04:08;;;;;;;1.80;0.47;;;;;;;;;;4984771;28;20061;-49
2024/01/06 08:06:34;;;;;;;0.40;0.40;;;;;;;;;;4978234;28;20026;-45
2024/01/06 08:08:59;;;;;;;5.35;0.40;;;;;;;;;;4988656;28;20050;-46
2024/01/06 08:11:24;;;;;;;1.05;0.50;;;;;;;;;;4991359;28;20030;-45
2024/01/06 08:13:50;;;;;;;2.17;0.55;;;;;;;;;;4990127;28;20098;-46
2024/01/06 08:16:15;;;;;;;2.97;0.60;;;;;;;;;;4983989;28;20152;-47
2024/01/06 08:18:41;;;;;;;3.63;0.40;;;;;;;;;;4976548;28;20061;-46
2024/01/06 08:21:06;;;;;;;1.77;0.63;;;;;;;;;;4990345;28;20041;-48
2024/01/06 08:23:31;;;;;;;3.25;1.17;;;;;;;;;;4988263;28;20117;-49
2024/01/06 08:25:57;;;;;;;1.55;0.65;;;;;;;;;;4996014;28;20030;-47
2024/01/06 08:28:23;;;;;;;3.85;0.52;;;;;;;;;;4991257;28;20071;-46
2024/01/06 08:30:49;;;;;;;2.78;1.20;;;;;;;;;;4991087;28;20034;-48
2024/01/06 08:33:14;;;;;;;2.10;1.80;;;;;;;;;;4963326;28;20396;-46
2024/01/06 08:35:40;;;;;;;1.85;0.28;;;;;;;;;;4992464;28;20027;-46
2024/01/06 08:38:09;;;;;;;1.88;1.20;;;;;;;;;;4999882;28;20381;-46
2024/01/06 08:40:35;;;;;;;1.25;0.70;;;;;;;;;;4996601;28;20018;-49
2024/01/06 08:43:01;;;;;;;2.30;0.65;;;;;;;;;;4986408;28;20110;-45
2024/01/06 08:45:26;;;;;;;2.28;0.30;;;;;;;;;;4976242;28;20061;-47
2024/01/06 08:47:52;;;;;;;1.88;0.32;;;;;;;;;;4997078;28;20034;-46
2024/01/06 08:50:17;;;;;;;0.93;0.20;;;;;;;;;;4985430;28;20031;-46
2024/01/06 08:52:42;;;;;;;1.30;0.77;;;;;;;;;;4993924;28;20575;-50
2024/01/06 08:55:08;;;;;;;0.73;0.22;;;;;;;;;;4995724;28;20030;-50
2024/01/06 08:57:33;;;;;;;1.25;0.40;;;;;;;;;;4983413;28;20113;-47
2024/01/06 08:59:59;;;;;;;0.90;0.70;;;;;;;;;;4984869;28;20039;-46
2024/01/06 09:02:24;;;;;;;3.00;0.65;;;;;;;;;;4987627;28;20030;-45
2024/01/06 09:04:50;;;;;;;2.75;0.38;;;;;;;;;;4992128;28;20517;-44
2024/01/06 09:07:17;;;;;;;2.17;0.50;;;;;;;;;;4980097;28;20505;-48
2024/01/06 09:09:42;;;;;;;3.05;0.40;;;;;;;;;;4981571;28;20039;-45
2024/01/06 09:12:08;;;;;;;1.70;0.88;;;;;;;;;;4984694;28;20037;-51
2024/01/06 09:14:33;;;;;;;2.67;0.57;;;;;;;;;;4990709;28;20050;-48
2024/01/06 09:16:59;;;;;;;1.55;0.35;;;;;;;;;;4965878;28;20030;-45
2024/01/06 09:19:25;;;;;;;2.90;2.80;;;;;;;;;;4988142;28;20413;-49
2024/01/06 09:21:50;;;;;;;2.88;0.57;;;;;;;;;;4980932;28;20031;-45
2024/01/06 09:24:16;;;;;;;1.00;0.20;;;;;;;;;;4995559;28;20035;-49
2024/01/06 09:26:44;;;;;;;1.73;0.52;;;;;;;;;;4981620;28;20026;-48
2024/01/06 09:29:09;;;;;;;1.33;0.80;;;;;;;;;;5004246;28;20066;-50
2024/01/06 09:31:34;;;;;;;2.28;0.30;;;;;;;;;;4975429;28;20113;-47
2024/01/06 09:34:01;;;;;;;2.13;0.52;;;;;;;;;;4986575;28;20049;-47
2024/01/06 09:36:27;;;;;;;0.95;0.40;;;;;;;;;;4990644;28;20033;-46
2024/01/06 09:38:52;;;;;;;2.28;0.52;;;;;;;;;;4994189;28;20043;-50
2024/01/06 09:41:18;;;;;;;1.73;1.15;;;;;;;;;;4967727;28;20034;-47
2024/01/06 09:43:43;;;;;;;1.13;0.80;;;;;;;;;;4964987;28;20053;-48
2024/01/06 09:46:17;;;;;;;3.03;0.50;;;;;;;;;;4990043;28;20722;-45
2024/01/06 09:48:43;;;;;;;1.20;0.38;;;;;;;;;;4987469;28;20085;-47
2024/01/06 09:51:12;;;;;;;2.75;1.08;;;;;;;;;;4992754;28;20046;-44
2024/01/06 09:53:54;;;;;;;3.22;1.20;;;;;;;;;;4984271;28;20085;-48
2024/01/06 09:56:20;;;;;;;3.80;0.98;;;;;;;;;;4984061;28;20139;-47
2024/01/06 09:58:45;;;;;;;2.80;1.10;;;;;;;;;;4988360;28;20050;-46
2024/01/06 10:01:11;;;;;;;1.90;1.17;;;;;;;;;;4983726;28;20383;-46
2024/01/06 10:03:37;;;;;;;1.45;0.52;;;;;;;;;;4986193;28;20038;-46
2024/01/06 10:06:04;;;;;;;0.63;0.47;;;;;;;;;;4987294;28;20026;-46
2024/01/06 10:08:32;;;;;;;1.58;0.50;;;;;;;;;;4966728;28;20053;-48
2024/01/06 10:10:58;;;;;;;3.33;0.32;;;;;;;;;;4990120;28;20061;-47
2024/01/06 10:13:24;;;;;;;1.40;1.10;;;;;;;;;;4983905;28;20062;-47
2024/01/06 10:15:50;;;;;;;2.30;0.73;;;;;;;;;;5002041;28;20057;-47
2024/01/06 10:18:16;;;;;;;1.17;0.73;;;;;;;;;;4984992;28;20022;-47
2024/01/06 10:20:41;;;;;;;1.65;1.05;;;;;;;;;;4991635;28;20084;-47
2024/01/06 10:23:06;;;;;;;2.47;0.60;;;;;;;;;;4981901;28;20062;-49
2024/01/06 10:25:32;;;;;;;1.25;0.88;;;;;;;;;;4992671;28;20110;-46
2024/01/06 10:28:01;;;;;;;2.78;0.77;;;;;;;;;;4982020;28;20027;-47
2024/01/06 10:30:26;;;;;;;4.63;1.13;;;;;;;;;;4990965;28;20100;-50
2024/01/06 10:32:52;;;;;;;2.90;0.98;;;;;;;;;;4988997;28;20035;-45
2024/01/06 10:35:18;;;;;;;1.90;1.63;;;;;;;;;;4979034;28;20409;-50
2024/01/06 10:37:45;;;;;;;0.73;0.50;;;;;;;;;;4995588;28;20033;-49
2024/01/06 10:40:18;;;;;;;1.58;0.60;;;;;;;;;;4998240;28;20043;-47
2024/01/06 10:42:45;;;;;;;1.25;0.73;;;;;;;;;;4988650;28;20400;-46
2024/01/06 10:45:13;;;;;;;2.97;1.02;;;;;;;;;;4986385;28;20406;-50
2024/01/06 10:47:40;;;;;;;2.85;0.70;;;;;;;;;;4989393;28;20027;-48
2024/01/06 10:50:07;;;;;;;1.52;0.68;;;;;;;;;;4982487;28;20056;-49
2024/01/06 10:52:35;;;;;;;2.15;0.47;;;;;;;;;;4981851;28;20459;-51
2024/01/06 10:55:02;;;;;;;0.98;0.55;;;;;;;;;;4991014;28;20053;-45
2024/01/06 10:57:31;;;;;;;1.88;0.73;;;;;;;;;;4995169;28;20081;-47
2024/01/06 10:59:58;;;;;;;4.18;1.10;;;;;;;;;;4986577;28;20117;-48
2024/01/06 11:02:25;;;;;;;2.28;1.15;;;;;;;;;;4993263;28;20031;-48
2024/01/06 11:04:51;;;;;;;1.02;0.73;;;;;;;;;;4991018;28;20116;-47
2024/01/06 11:07:22;;;;;;;2.15;0.57;;;;;;;;;;4997756;28;20053;-46
2024/01/06 11:10:09;;;;;;;2.33;1.08;;;;;;;;;;4994588;28;20058;-46
2024/01/06 11:12:34;;;;;;;0.63;0.22;;;;;;;;;;4985096;28;20038;-47
2024/01/06 11:15:00;;;;;;;1.42;0.40;;;;;;;;;;4994071;28;20091;-48
2024/01/06 11:17:58;;;;;;;1.58;0.70;;;;;;;;;;4989884;28;20031;-48
2024/01/06 11:20:26;;;;;;;0.47;0.40;;;;;;;;;;4964520;28;20104;-49
2024/01/06 11:22:52;;;;;;;2.45;0.63;;;;;;;;;;4972309;28;20098;-46
2024/01/06 11:25:20;;;;;;;0.70;0.43;;;;;;;;;;4968614;28;20162;-48
2024/01/06 11:27:47;;;;;;;1.50;0.50;;;;;;;;;;4974717;28;20433;-47
2024/01/06 11:30:19;;;;;;;1.88;0.82;;;;;;;;;;4987965;28;20045;-48
2024/01/06 11:32:46;;;;;;;1.08;0.40;;;;;;;;;;4986463;28;20023;-49
2024/01/06 11:35:14;;;;;;;1.67;0.75;;;;;;;;;;4993389;28;20035;-46
2024/01/06 11:37:39;;;;;;;1.17;1.08;;;;;;;;;;4997574;28;20034;-46
2024/01/06 11:40:10;;;;;;;2.83;0.35;;;;;;;;;;4994392;28;20035;-48
2024/01/06 11:42:35;;;;;;;1.35;0.60;;;;;;;;;;4990796;28;20045;-46
2024/01/06 11:45:05;;;;;;;2.53;0.60;;;;;;;;;;4988462;28;20045;-49
2024/01/06 11:47:32;;;;;;;0.60;0.40;;;;;;;;;;4972460;28;20487;-46
2024/01/06 11:50:00;;;;;;;2.15;0.70;;;;;;;;;;4992580;28;20053;-47
2024/01/06 11:52:27;;;;;;;1.67;0.60;;;;;;;;;;4987484;28;20091;-45
2024/01/06 11:54:54;;;;;;;1.15;0.70;;;;;;;;;;4992045;28;20042;-49
2024/01/06 11:57:20;;;;;;;0.90;0.50;;;;;;;;;;4985426;28;20034;-48
2024/01/06 11:59:45;;;;;;;1.50;0.82;;;;;;;;;;4982748;28;20031;-49
2024/01/06 12:02:13;;;;;;;0.98;0.75;;;;;;;;;;4985795;28;20088;-51
2024/01/06 12:04:40;;;;;;;2.17;2.00;;;;;;;;;;4986850;28;20031;-49
2024/01/06 12:07:09;;;;;;;2.60;0.52;;;;;;;;;;4961022;28;20026;-48
2024/01/06 12:09:38;;;;;;;1.40;0.30;;;;;;;;;;4987217;28;20046;-51
2024/01/06 12:12:05;;;;;;;1.17;0.30;;;;;;;;;;4996805;28;20070;-48
2024/01/06 12:14:32;;;;;;;1.15;0.65;;;;;;;;;;4996006;28;20046;-48
2024/01/06 12:17:02;;;;;;;2.20;0.60;;;;;;;;;;4994405;28;20495;-45
2024/01/06 12:19:29;;;;;;;0.68;0.68;;;;;;;;;;4993601;28;20030;-50
2024/01/06 12:21:55;;;;;;;2.17;0.50;;;;;;;;;;4994708;28;20093;-45
2024/01/06 12:24:21;;;;;;;3.13;0.43;;;;;;;;;;4988037;28;20054;-48
2024/01/06 12:26:47;;;;;;;1.60;0.10;;;;;;;;;;4990691;28;20038;-49
2024/01/06 12:29:13;;;;;;;1.02;0.40;;;;;;;;;;4991062;28;20038;-46
2024/01/06 12:31:39;;;;;;;3.33;0.30;;;;;;;;;;4985703;28;20038;-46
2024/01/06 12:34:07;;;;;;;2.15;0.43;;;;;;;;;;4984448;28;20077;-48
2024/01/06 12:36:39;;;;;;;1.77;1.65;;;;;;;;;;4993476;28;20541;-47
2024/01/06 12:39:05;;;;;;;2.80;2.60;;;;;;;;;;4982595;28;20405;-49
2024/01/06 12:41:33;;;;;;;2.50;0.45;;;;;;;;;;4991731;28;20033;-49
2024/01/06 12:43:59;;;;;;;2.05;0.93;;;;;;;;;;4999917;28;20496;-48
2024/01/06 12:46:25;;;;;;;0.98;0.60;;;;;;;;;;4992175;28;20030;-45
2024/01/06 12:48:50;;;;;;;1.40;0.70;;;;;;;;;;4990529;28;20038;-51
2024/01/06 12:51:16;;;;;;;2.97;1.13;;;;;;;;;;4997662;28;20054;-46
2024/01/06 12:53:41;;;;;;;1.25;0.40;;;;;;;;;;4969014;28;20042;-49
2024/01/06 12:56:07;;;;;;;2.05;0.88;;;;;;;;;;4982661;28;20042;-46
2024/01/06 12:58:33;;;;;;;0.98;0.68;;;;;;;;;;4978150;28;20070;-48
2024/01/06 13:00:58;;;;;;;2.20;0.50;;;;;;;;;;4982803;28;20027;-45
2024/01/06 13:03:24;;;;;;;1.48;0.80;;;;;;;;;;4984851;28;20039;-47
2024/01/06 13:05:49;;;;;;;2.95;0.68;;;;;;;;;;4981431;28;20023;-48
2024/01/06 13:08:15;;;;;;;1.10;0.45;;;;;;;;;;4984945;28;20034;-48
2024/01/06 13:10:40;;;;;;;1.23;0.70;;;;;;;;;;4984999;28;20030;-47
2024/01/06 13:13:06;;;;;;;2.67;2.47;;;;;;;;;;4987610;28;20370;-48
2024/01/06 13:15:31;;;;;;;1.58;0.50;;;;;;;;;;4990564;28;20065;-45
2024/01/06 13:17:57;;;;;;;2.58;0.55;;;;;;;;;;4990237;28;20034;-47
2024/01/06 13:20:23;;;;;;;1.60;0.30;;;;;;;;;;4988890;28;20117;-46
2024/01/06 13:22:48;;;;;;;1.73;0.52;;;;;;;;;;4975306;28;20034;-50
2024/01/06 13:25:14;;;;;;;2.80;0.47;;;;;;;;;;4989239;28;20037;-47
2024/01/06 13:27:40;;;;;;;1.73;0.65;;;;;;;;;;4982165;28;20489;-47
2024/01/06 13:30:06;;;;;;;1.15;0.22;;;;;;;;;;4987751;28;20108;-46
2024/01/06 13:32:32;;;;;;;2.00;1.02;;;;;;;;;;4992333;28;20053;-49
2024/01/06 13:35:04;;;;;;;1.65;0.20;;;;;;;;;;4986169;28;20542;-45
2024/01/06 13:37:30;;;;;;;1.67;1.23;;;;;;;;;;4993668;28;20026;-47
2024/01/06 13:39:55;;;;;;;1.10;0.30;;;;;;;;;;4971809;28;20170;-46
2024/01/06 13:42:21;;;;;;;1.02;0.60;;;;;;;;;;4993127;28;20049;-51
2024/01/06 13:44:48;;;;;;;1.27;0.75;;;;;;;;;;4990180;28;20532;-48
2024/01/06 13:47:14;;;;;;;2.83;1.33;;;;;;;;;;4990199;28;20085;-48
2024/01/06 13:49:39;;;;;;;0.90;0.70;;;;;;;;;;4980513;28;20041;-46
2024/01/06 13:52:07;;;;;;;0.75;0.20;;;;;;;;;;4987622;28;20054;-48
2024/01/06 13:54:35;;;;;;;1.15;0.68;;;;;;;;;;4990407;28;20548;-46
2024/01/06 13:57:02;;;;;;;1.98;0.65;;;;;;;;;;4986406;28;20054;-44
2024/01/06 13:59:28;;;;;;;2.05;1.13;;;;;;;;;;4992273;28;20038;-47
2024/01/06 14:01:54;;;;;;;0.60;0.40;;;;;;;;;;4981744;28;20469;-45
2024/01/06 14:04:19;;;;;;;1.52;0.82;;;;;;;;;;4981085;28;20524;-47
2024/01/06 14:06:47;;;;;;;1.45;0.63;;;;;;;;;;4979542;28;20042;-44
2024/01/06 14:09:13;;;;;;;0.77;0.35;;;;;;;;;;4981060;28;20552;-45
2024/01/06 14:11:39;;;;;;;1.13;0.38;;;;;;;;;;4988654;28;20069;-44
2024/01/06 14:14:04;;;;;;;0.70;0.45;;;;;;;;;;4990406;28;20168;-45
2024/01/06 14:16:30;;;;;;;0.43;0.32;;;;;;;;;;4993733;28;20497;-48
2024/01/06 14:18:56;;;;;;;0.80;0.40;;;;;;;;;;4984448;28;20034;-47
2024/01/06 14:21:21;;;;;;;0.68;0.32;;;;;;;;;;4983665;28;20464;-44
2024/01/06 14:23:50;;;;;;;0.52;0.52;;;;;;;;;;4992993;28;20035;-48
2024/01/06 14:26:19;;;;;;;0.30;0.10;;;;;;;;;;4984196;28;20106;-45
2024/01/06 14:28:45;;;;;;;2.08;1.98;;;;;;;;;;4991741;28;20459;-48
2024/01/06 14:31:10;;;;;;;0.60;0.10;;;;;;;;;;4971503;28;20046;-45
2024/01/06 14:33:36;;;;;;;0.40;0.28;;;;;;;;;;4981542;28;20061;-44
2024/01/06 14:36:02;;;;;;;0.20;0.10;;;;;;;;;;4987164;28;20034;-44